sensor_id;sensor_type;location;lat;lon;timestamp;P1;durP1;ratioP1;P2;durP2;ratioP2
74102;SDS011;62853;46.166;3.640;2024-03-25T00:02:06;3.03;;;0.90;;
74102;SDS011;62853;46.166;3.640;2024-03-25T00:04:31;3.90;;;1.25;;
74102;SDS011;62853;46.166;3.640;2024-03-25T00:06:57;2.70;;;0.80;;
74102;SDS011;62853;46.166;3.640;2024-03-25T00:09:23;2.30;;;0.80;;
74102;SDS011;62853;46.166;3.640;2024-03-25T00:11:48;3.15;;;0.80;;
74102;SDS011;62853;46.166;3.640;2024-03-25T00:14:14;2.10;;;0.90;;
74102;SDS011;62853;46.166;3.640;2024-03-25T00:16:40;1.95;;;0.80;;
74102;SDS011;62853;46.166;3.640;2024-03-25T00:19:06;2.08;;;0.70;;
74102;SDS011;62853;46.166;3.640;2024-03-25T00:21:31;2.67;;;0.80;;
74102;SDS011;62853;46.166;3.640;2024-03-25T00:23:56;2.80;;;0.95;;
74102;SDS011;62853;46.166;3.640;2024-03-25T00:26:22;2.97;;;0.80;;
74102;SDS011;62853;46.166;3.640;2024-03-25T00:28:48;2.15;;;0.90;;
74102;SDS011;62853;46.166;3.640;2024-03-25T00:31:13;3.17;;;0.88;;
74102;SDS011;62853;46.166;3.640;2024-03-25T00:33:39;1.83;;;0.88;;
74102;SDS011;62853;46.166;3.640;2024-03-25T00:36:05;3.47;;;0.93;;
74102;SDS011;62853;46.166;3.640;2024-03-25T00:38:30;2.03;;;0.60;;
74102;SDS011;62853;46.166;3.640;2024-03-25T00:40:55;2.20;;;0.70;;
74102;SDS011;62853;46.166;3.640;2024-03-25T00:43:21;2.17;;;0.55;;
74102;SDS011;62853;46.166;3.640;2024-03-25T00:45:46;4.82;;;0.98;;
74102;SDS011;62853;46.166;3.640;2024-03-25T00:48:12;2.85;;;0.90;;
74102;SDS011;62853;46.166;3.640;2024-03-25T00:50:37;2.20;;;0.77;;
74102;SDS011;62853;46.166;3.640;2024-03-25T00:53:03;1.80;;;0.80;;
74102;SDS011;62853;46.166;3.640;2024-03-25T00:55:28;3.17;;;1.00;;
74102;SDS011;62853;46.166;3.640;2024-03-25T00:57:54;1.85;;;0.80;;
74102;SDS011;62853;46.166;3.640;2024-03-25T01:00:19;3.50;;;0.93;;
74102;SDS011;62853;46.166;3.640;2024-03-25T01:02:45;2.40;;;1.00;;
74102;SDS011;62853;46.166;3.640;2024-03-25T01:05:11;3.92;;;0.90;;
74102;SDS011;62853;46.166;3.640;2024-03-25T01:07:36;4.25;;;1.20;;
74102;SDS011;62853;46.166;3.640;2024-03-25T01:10:01;3.22;;;1.10;;
74102;SDS011;62853;46.166;3.640;2024-03-25T01:12:27;3.42;;;1.40;;
74102;SDS011;62853;46.166;3.640;2024-03-25T01:14:52;2.53;;;0.90;;
74102;SDS011;62853;46.166;3.640;2024-03-25T01:17:18;3.33;;;1.02;;
74102;SDS011;62853;46.166;3.640;2024-03-25T01:19:44;2.90;;;0.93;;
74102;SDS011;62853;46.166;3.640;2024-03-25T01:22:10;2.63;;;0.73;;
74102;SDS011;62853;46.166;3.640;2024-03-25T01:24:35;3.10;;;1.17;;
74102;SDS011;62853;46.166;3.640;2024-03-25T01:27:01;3.17;;;0.80;;
74102;SDS011;62853;46.166;3.640;2024-03-25T01:29:26;3.80;;;0.98;;
74102;SDS011;62853;46.166;3.640;2024-03-25T01:31:52;4.90;;;1.00;;
74102;SDS011;62853;46.166;3.640;2024-03-25T01:34:17;3.13;;;0.93;;
74102;SDS011;62853;46.166;3.640;2024-03-25T01:36:42;3.45;;;0.80;;
74102;SDS011;62853;46.166;3.640;2024-03-25T01:39:08;4.18;;;1.00;;
74102;SDS011;62853;46.166;3.640;2024-03-25T01:41:34;2.80;;;1.00;;
74102;SDS011;62853;46.166;3.640;2024-03-25T01:43:59;2.33;;;1.00;;
74102;SDS011;62853;46.166;3.640;2024-03-25T01:46:25;2.28;;;0.85;;
74102;SDS011;62853;46.166;3.640;2024-03-25T01:48:50;3.72;;;0.98;;
74102;SDS011;62853;46.166;3.640;2024-03-25T01:51:18;2.53;;;0.98;;
74102;SDS011;62853;46.166;3.640;2024-03-25T01:53:46;2.22;;;0.90;;
74102;SDS011;62853;46.166;3.640;2024-03-25T01:56:13;3.20;;;1.15;;
74102;SDS011;62853;46.166;3.640;2024-03-25T01:58:40;2.67;;;1.10;;
74102;SDS011;62853;46.166;3.640;2024-03-25T02:01:05;4.88;;;1.10;;
74102;SDS011;62853;46.166;3.640;2024-03-25T02:03:33;3.33;;;1.08;;
74102;SDS011;62853;46.166;3.640;2024-03-25T02:16:04;3.10;;;1.15;;
74102;SDS011;62853;46.166;3.640;2024-03-25T02:18:30;3.08;;;1.15;;
74102;SDS011;62853;46.166;3.640;2024-03-25T02:20:56;2.70;;;0.90;;
74102;SDS011;62853;46.166;3.640;2024-03-25T02:23:22;2.90;;;1.15;;
74102;SDS011;62853;46.166;3.640;2024-03-25T02:25:49;4.07;;;1.20;;
74102;SDS011;62853;46.166;3.640;2024-03-25T02:28:15;1.65;;;0.82;;
74102;SDS011;62853;46.166;3.640;2024-03-25T02:30:40;2.72;;;1.00;;
74102;SDS011;62853;46.166;3.640;2024-03-25T02:33:05;1.77;;;1.00;;
74102;SDS011;62853;46.166;3.640;2024-03-25T02:35:31;2.90;;;0.95;;
74102;SDS011;62853;46.166;3.640;2024-03-25T02:37:56;2.70;;;1.00;;
74102;SDS011;62853;46.166;3.640;2024-03-25T02:40:22;3.25;;;1.33;;
74102;SDS011;62853;46.166;3.640;2024-03-25T02:42:48;3.22;;;1.20;;
74102;SDS011;62853;46.166;3.640;2024-03-25T02:45:14;3.53;;;1.27;;
74102;SDS011;62853;46.166;3.640;2024-03-25T02:47:39;3.42;;;1.20;;
74102;SDS011;62853;46.166;3.640;2024-03-25T02:50:04;1.77;;;1.05;;
74102;SDS011;62853;46.166;3.640;2024-03-25T02:52:30;2.78;;;1.30;;
74102;SDS011;62853;46.166;3.640;2024-03-25T02:54:56;3.15;;;1.40;;
74102;SDS011;62853;46.166;3.640;2024-03-25T02:57:21;2.83;;;1.20;;
74102;SDS011;62853;46.166;3.640;2024-03-25T02:59:46;2.25;;;1.10;;
74102;SDS011;62853;46.166;3.640;2024-03-25T03:02:12;2.50;;;1.20;;
74102;SDS011;62853;46.166;3.640;2024-03-25T03:04:37;2.97;;;1.00;;
74102;SDS011;62853;46.166;3.640;2024-03-25T03:07:03;2.47;;;1.02;;
74102;SDS011;62853;46.166;3.640;2024-03-25T03:09:28;3.53;;;1.27;;
74102;SDS011;62853;46.166;3.640;2024-03-25T03:11:54;4.20;;;1.55;;
74102;SDS011;62853;46.166;3.640;2024-03-25T03:14:19;3.20;;;1.50;;
74102;SDS011;62853;46.166;3.640;2024-03-25T03:16:45;1.92;;;1.27;;
74102;SDS011;62853;46.166;3.640;2024-03-25T03:19:10;2.55;;;1.23;;
74102;SDS011;62853;46.166;3.640;2024-03-25T03:21:35;1.05;;;0.88;;
74102;SDS011;62853;46.166;3.640;2024-03-25T03:24:02;1.88;;;1.15;;
74102;SDS011;62853;46.166;3.640;2024-03-25T03:26:27;1.52;;;0.93;;
74102;SDS011;62853;46.166;3.640;2024-03-25T03:28:53;1.77;;;1.08;;
74102;SDS011;62853;46.166;3.640;2024-03-25T03:31:19;1.40;;;1.00;;
74102;SDS011;62853;46.166;3.640;2024-03-25T03:33:46;1.30;;;1.00;;
74102;SDS011;62853;46.166;3.640;2024-03-25T03:36:12;1.40;;;1.00;;
74102;SDS011;62853;46.166;3.640;2024-03-25T03:38:38;1.45;;;0.98;;
74102;SDS011;62853;46.166;3.640;2024-03-25T03:41:03;1.35;;;1.23;;
74102;SDS011;62853;46.166;3.640;2024-03-25T03:43:29;1.73;;;1.13;;
74102;SDS011;62853;46.166;3.640;2024-03-25T03:45:54;1.40;;;1.10;;
74102;SDS011;62853;46.166;3.640;2024-03-25T03:48:19;1.27;;;1.17;;
74102;SDS011;62853;46.166;3.640;2024-03-25T03:50:45;1.10;;;1.00;;
74102;SDS011;62853;46.166;3.640;2024-03-25T03:53:10;1.10;;;1.00;;
74102;SDS011;62853;46.166;3.640;2024-03-25T03:55:36;1.73;;;1.20;;
74102;SDS011;62853;46.166;3.640;2024-03-25T03:58:02;1.20;;;1.00;;
74102;SDS011;62853;46.166;3.640;2024-03-25T04:00:27;1.23;;;1.10;;
74102;SDS011;62853;46.166;3.640;2024-03-25T04:02:53;1.27;;;1.10;;
74102;SDS011;62853;46.166;3.640;2024-03-25T04:05:18;1.83;;;1.35;;
74102;SDS011;62853;46.166;3.640;2024-03-25T04:07:44;1.05;;;0.93;;
74102;SDS011;62853;46.166;3.640;2024-03-25T04:10:10;1.52;;;1.15;;
74102;SDS011;62853;46.166;3.640;2024-03-25T04:12:35;1.35;;;1.10;;
74102;SDS011;62853;46.166;3.640;2024-03-25T04:15:02;2.00;;;1.50;;
74102;SDS011;62853;46.166;3.640;2024-03-25T04:17:30;1.52;;;1.00;;
74102;SDS011;62853;46.166;3.640;2024-03-25T04:19:58;1.55;;;1.08;;
74102;SDS011;62853;46.166;3.640;2024-03-25T04:22:25;1.15;;;1.00;;
74102;SDS011;62853;46.166;3.640;2024-03-25T04:24:51;0.90;;;0.90;;
74102;SDS011;62853;46.166;3.640;2024-03-25T04:27:16;1.20;;;1.10;;
74102;SDS011;62853;46.166;3.640;2024-03-25T04:29:41;1.25;;;1.13;;
74102;SDS011;62853;46.166;3.640;2024-03-25T04:32:07;1.52;;;1.20;;
74102;SDS011;62853;46.166;3.640;2024-03-25T04:34:33;1.27;;;1.13;;
74102;SDS011;62853;46.166;3.640;2024-03-25T04:36:59;1.60;;;1.15;;
74102;SDS011;62853;46.166;3.640;2024-03-25T04:39:24;1.33;;;1.20;;
74102;SDS011;62853;46.166;3.640;2024-03-25T04:41:50;1.00;;;0.90;;
74102;SDS011;62853;46.166;3.640;2024-03-25T04:44:15;1.30;;;1.20;;
74102;SDS011;62853;46.166;3.640;2024-03-25T04:46:43;1.20;;;1.00;;
74102;SDS011;62853;46.166;3.640;2024-03-25T04:49:08;1.30;;;1.20;;
74102;SDS011;62853;46.166;3.640;2024-03-25T04:51:33;1.10;;;1.00;;
74102;SDS011;62853;46.166;3.640;2024-03-25T04:53:59;1.70;;;1.38;;
74102;SDS011;62853;46.166;3.640;2024-03-25T04:56:24;1.50;;;1.40;;
74102;SDS011;62853;46.166;3.640;2024-03-25T04:58:49;1.52;;;1.30;;
74102;SDS011;62853;46.166;3.640;2024-03-25T05:01:15;1.42;;;1.25;;
74102;SDS011;62853;46.166;3.640;2024-03-25T05:03:40;1.30;;;1.20;;
74102;SDS011;62853;46.166;3.640;2024-03-25T05:06:05;1.35;;;1.20;;
74102;SDS011;62853;46.166;3.640;2024-03-25T05:08:34;1.30;;;1.20;;
74102;SDS011;62853;46.166;3.640;2024-03-25T05:10:59;2.30;;;1.30;;
74102;SDS011;62853;46.166;3.640;2024-03-25T05:13:25;2.00;;;1.50;;
74102;SDS011;62853;46.166;3.640;2024-03-25T05:15:50;1.30;;;1.20;;
74102;SDS011;62853;46.166;3.640;2024-03-25T05:18:17;1.70;;;1.50;;
74102;SDS011;62853;46.166;3.640;2024-03-25T05:20:43;1.40;;;1.25;;
74102;SDS011;62853;46.166;3.640;2024-03-25T05:23:08;1.33;;;1.23;;
74102;SDS011;62853;46.166;3.640;2024-03-25T05:25:34;2.05;;;1.30;;
74102;SDS011;62853;46.166;3.640;2024-03-25T05:28:00;1.55;;;1.45;;
74102;SDS011;62853;46.166;3.640;2024-03-25T05:30:25;1.60;;;1.50;;
74102;SDS011;62853;46.166;3.640;2024-03-25T05:32:51;1.50;;;1.23;;
74102;SDS011;62853;46.166;3.640;2024-03-25T05:35:16;1.60;;;1.50;;
74102;SDS011;62853;46.166;3.640;2024-03-25T05:37:41;1.88;;;1.52;;
74102;SDS011;62853;46.166;3.640;2024-03-25T05:40:07;1.80;;;1.40;;
74102;SDS011;62853;46.166;3.640;2024-03-25T05:42:36;1.42;;;1.33;;
74102;SDS011;62853;46.166;3.640;2024-03-25T05:45:02;1.25;;;1.15;;
74102;SDS011;62853;46.166;3.640;2024-03-25T05:47:27;1.40;;;1.20;;
74102;SDS011;62853;46.166;3.640;2024-03-25T05:49:53;1.40;;;1.20;;
74102;SDS011;62853;46.166;3.640;2024-03-25T05:52:18;1.65;;;1.55;;
74102;SDS011;62853;46.166;3.640;2024-03-25T05:54:44;1.48;;;1.27;;
74102;SDS011;62853;46.166;3.640;2024-03-25T05:57:09;1.50;;;1.40;;
74102;SDS011;62853;46.166;3.640;2024-03-25T05:59:34;1.50;;;1.40;;
74102;SDS011;62853;46.166;3.640;2024-03-25T06:02:00;1.58;;;1.40;;
74102;SDS011;62853;46.166;3.640;2024-03-25T06:04:25;1.48;;;1.38;;
74102;SDS011;62853;46.166;3.640;2024-03-25T06:06:50;1.50;;;1.40;;
74102;SDS011;62853;46.166;3.640;2024-03-25T06:09:15;1.67;;;1.48;;
74102;SDS011;62853;46.166;3.640;2024-03-25T06:11:41;1.58;;;1.20;;
74102;SDS011;62853;46.166;3.640;2024-03-25T06:14:07;1.60;;;1.50;;
74102;SDS011;62853;46.166;3.640;2024-03-25T06:16:32;2.08;;;1.42;;
74102;SDS011;62853;46.166;3.640;2024-03-25T06:18:58;1.40;;;1.30;;
74102;SDS011;62853;46.166;3.640;2024-03-25T06:21:23;1.65;;;1.30;;
74102;SDS011;62853;46.166;3.640;2024-03-25T06:23:48;1.50;;;1.40;;
74102;SDS011;62853;46.166;3.640;2024-03-25T06:26:14;1.70;;;1.27;;
74102;SDS011;62853;46.166;3.640;2024-03-25T06:28:39;1.50;;;1.40;;
74102;SDS011;62853;46.166;3.640;2024-03-25T06:31:04;1.40;;;1.20;;
74102;SDS011;62853;46.166;3.640;2024-03-25T06:33:48;1.60;;;1.30;;
74102;SDS011;62853;46.166;3.640;2024-03-25T06:36:32;1.30;;;1.20;;
74102;SDS011;62853;46.166;3.640;2024-03-25T06:39:00;1.30;;;1.20;;
74102;SDS011;62853;46.166;3.640;2024-03-25T06:41:26;1.30;;;1.20;;
74102;SDS011;62853;46.166;3.640;2024-03-25T06:43:51;1.48;;;1.30;;
74102;SDS011;62853;46.166;3.640;2024-03-25T06:46:17;1.77;;;1.48;;
74102;SDS011;62853;46.166;3.640;2024-03-25T06:48:42;1.42;;;1.30;;
74102;SDS011;62853;46.166;3.640;2024-03-25T06:51:07;1.30;;;1.20;;
74102;SDS011;62853;46.166;3.640;2024-03-25T06:53:33;1.60;;;1.50;;
74102;SDS011;62853;46.166;3.640;2024-03-25T06:55:58;1.40;;;1.23;;
74102;SDS011;62853;46.166;3.640;2024-03-25T06:58:25;1.60;;;1.50;;
74102;SDS011;62853;46.166;3.640;2024-03-25T07:00:52;1.52;;;1.42;;
74102;SDS011;62853;46.166;3.640;2024-03-25T07:03:18;1.20;;;1.10;;
74102;SDS011;62853;46.166;3.640;2024-03-25T07:05:47;1.15;;;1.05;;
74102;SDS011;62853;46.166;3.640;2024-03-25T07:08:14;1.40;;;1.20;;
74102;SDS011;62853;46.166;3.640;2024-03-25T07:10:43;1.80;;;1.30;;
74102;SDS011;62853;46.166;3.640;2024-03-25T07:13:09;1.75;;;1.15;;
74102;SDS011;62853;46.166;3.640;2024-03-25T07:15:34;1.27;;;1.17;;
74102;SDS011;62853;46.166;3.640;2024-03-25T07:18:00;1.70;;;1.30;;
74102;SDS011;62853;46.166;3.640;2024-03-25T07:20:25;1.58;;;1.30;;
74102;SDS011;62853;46.166;3.640;2024-03-25T07:22:53;1.85;;;1.25;;
74102;SDS011;62853;46.166;3.640;2024-03-25T07:25:21;1.52;;;1.30;;
74102;SDS011;62853;46.166;3.640;2024-03-25T07:27:47;1.52;;;1.40;;
74102;SDS011;62853;46.166;3.640;2024-03-25T07:30:13;2.67;;;1.60;;
74102;SDS011;62853;46.166;3.640;2024-03-25T07:32:39;2.05;;;1.85;;
74102;SDS011;62853;46.166;3.640;2024-03-25T07:35:04;2.00;;;1.70;;
74102;SDS011;62853;46.166;3.640;2024-03-25T07:37:30;1.88;;;1.67;;
74102;SDS011;62853;46.166;3.640;2024-03-25T07:39:56;1.80;;;1.60;;
74102;SDS011;62853;46.166;3.640;2024-03-25T07:42:21;2.45;;;2.08;;
74102;SDS011;62853;46.166;3.640;2024-03-25T07:44:47;2.05;;;1.73;;
74102;SDS011;62853;46.166;3.640;2024-03-25T07:47:12;2.35;;;1.92;;
74102;SDS011;62853;46.166;3.640;2024-03-25T07:49:38;2.90;;;2.08;;
74102;SDS011;62853;46.166;3.640;2024-03-25T07:52:05;3.40;;;2.40;;
74102;SDS011;62853;46.166;3.640;2024-03-25T07:54:31;3.10;;;2.42;;
74102;SDS011;62853;46.166;3.640;2024-03-25T07:56:56;2.40;;;2.20;;
74102;SDS011;62853;46.166;3.640;2024-03-25T07:59:22;2.67;;;2.40;;
74102;SDS011;62853;46.166;3.640;2024-03-25T08:01:47;2.50;;;2.30;;
74102;SDS011;62853;46.166;3.640;2024-03-25T08:04:12;3.50;;;2.28;;
74102;SDS011;62853;46.166;3.640;2024-03-25T08:06:38;3.25;;;2.40;;
74102;SDS011;62853;46.166;3.640;2024-03-25T08:09:03;3.00;;;2.55;;
74102;SDS011;62853;46.166;3.640;2024-03-25T08:11:32;3.50;;;3.03;;
74102;SDS011;62853;46.166;3.640;2024-03-25T08:13:58;3.28;;;2.97;;
74102;SDS011;62853;46.166;3.640;2024-03-25T08:16:23;5.03;;;3.70;;
74102;SDS011;62853;46.166;3.640;2024-03-25T08:18:49;5.30;;;3.85;;
74102;SDS011;62853;46.166;3.640;2024-03-25T08:21:15;3.75;;;3.40;;
74102;SDS011;62853;46.166;3.640;2024-03-25T08:23:41;4.05;;;3.33;;
74102;SDS011;62853;46.166;3.640;2024-03-25T08:26:06;4.43;;;3.58;;
74102;SDS011;62853;46.166;3.640;2024-03-25T08:28:32;4.00;;;3.50;;
74102;SDS011;62853;46.166;3.640;2024-03-25T08:30:58;4.18;;;3.45;;
74102;SDS011;62853;46.166;3.640;2024-03-25T08:33:23;4.18;;;3.13;;
74102;SDS011;62853;46.166;3.640;2024-03-25T08:35:48;3.25;;;2.80;;
74102;SDS011;62853;46.166;3.640;2024-03-25T08:38:14;3.70;;;2.80;;
74102;SDS011;62853;46.166;3.640;2024-03-25T08:40:39;3.30;;;2.67;;
74102;SDS011;62853;46.166;3.640;2024-03-25T08:43:05;3.00;;;2.70;;
74102;SDS011;62853;46.166;3.640;2024-03-25T08:45:31;3.15;;;2.63;;
74102;SDS011;62853;46.166;3.640;2024-03-25T08:47:57;2.90;;;2.65;;
74102;SDS011;62853;46.166;3.640;2024-03-25T08:50:22;3.28;;;2.88;;
74102;SDS011;62853;46.166;3.640;2024-03-25T08:52:47;2.50;;;2.30;;
74102;SDS011;62853;46.166;3.640;2024-03-25T08:55:13;2.47;;;2.15;;
74102;SDS011;62853;46.166;3.640;2024-03-25T08:57:38;2.40;;;2.20;;
74102;SDS011;62853;46.166;3.640;2024-03-25T09:00:04;2.45;;;1.90;;
74102;SDS011;62853;46.166;3.640;2024-03-25T09:02:32;2.88;;;2.22;;
74102;SDS011;62853;46.166;3.640;2024-03-25T09:04:58;2.28;;;2.08;;
74102;SDS011;62853;46.166;3.640;2024-03-25T09:07:25;9.05;;;6.60;;
74102;SDS011;62853;46.166;3.640;2024-03-25T09:09:50;13.50;;;10.85;;
74102;SDS011;62853;46.166;3.640;2024-03-25T09:12:34;14.85;;;11.63;;
74102;SDS011;62853;46.166;3.640;2024-03-25T09:14:59;14.55;;;11.63;;
74102;SDS011;62853;46.166;3.640;2024-03-25T09:17:24;15.20;;;11.02;;
74102;SDS011;62853;46.166;3.640;2024-03-25T09:19:50;12.85;;;10.75;;
74102;SDS011;62853;46.166;3.640;2024-03-25T09:22:15;11.73;;;10.25;;
74102;SDS011;62853;46.166;3.640;2024-03-25T09:24:41;12.45;;;10.30;;
74102;SDS011;62853;46.166;3.640;2024-03-25T09:27:06;13.68;;;11.00;;
74102;SDS011;62853;46.166;3.640;2024-03-25T09:29:31;13.30;;;10.35;;
74102;SDS011;62853;46.166;3.640;2024-03-25T09:31:57;13.07;;;10.27;;
74102;SDS011;62853;46.166;3.640;2024-03-25T09:34:22;14.25;;;10.00;;
74102;SDS011;62853;46.166;3.640;2024-03-25T09:36:47;13.90;;;10.30;;
74102;SDS011;62853;46.166;3.640;2024-03-25T09:39:13;12.80;;;9.73;;
74102;SDS011;62853;46.166;3.640;2024-03-25T09:41:38;11.15;;;9.00;;
74102;SDS011;62853;46.166;3.640;2024-03-25T09:44:08;11.45;;;9.35;;
74102;SDS011;62853;46.166;3.640;2024-03-25T09:46:34;11.20;;;8.88;;
74102;SDS011;62853;46.166;3.640;2024-03-25T09:49:01;12.20;;;9.30;;
74102;SDS011;62853;46.166;3.640;2024-03-25T09:51:30;12.63;;;9.15;;
74102;SDS011;62853;46.166;3.640;2024-03-25T09:53:56;11.27;;;9.18;;
74102;SDS011;62853;46.166;3.640;2024-03-25T09:56:22;13.05;;;9.18;;
74102;SDS011;62853;46.166;3.640;2024-03-25T09:58:47;12.30;;;9.18;;
74102;SDS011;62853;46.166;3.640;2024-03-25T10:01:14;12.63;;;9.25;;
74102;SDS011;62853;46.166;3.640;2024-03-25T10:03:39;12.63;;;8.82;;
74102;SDS011;62853;46.166;3.640;2024-03-25T10:06:05;11.02;;;8.43;;
74102;SDS011;62853;46.166;3.640;2024-03-25T10:08:30;10.73;;;7.90;;
74102;SDS011;62853;46.166;3.640;2024-03-25T10:10:56;125.00;;;20.02;;
74102;SDS011;62853;46.166;3.640;2024-03-25T10:13:22;18.60;;;9.18;;
74102;SDS011;62853;46.166;3.640;2024-03-25T10:15:48;16.42;;;8.23;;
74102;SDS011;62853;46.166;3.640;2024-03-25T10:18:13;17.10;;;7.93;;
74102;SDS011;62853;46.166;3.640;2024-03-25T10:20:47;15.70;;;7.90;;
74102;SDS011;62853;46.166;3.640;2024-03-25T10:23:14;13.35;;;7.47;;
74102;SDS011;62853;46.166;3.640;2024-03-25T10:25:40;15.55;;;7.30;;
74102;SDS011;62853;46.166;3.640;2024-03-25T10:28:05;11.32;;;6.97;;
74102;SDS011;62853;46.166;3.640;2024-03-25T10:30:32;16.08;;;6.70;;
74102;SDS011;62853;46.166;3.640;2024-03-25T10:32:58;10.30;;;5.63;;
74102;SDS011;62853;46.166;3.640;2024-03-25T10:35:27;9.02;;;5.22;;
74102;SDS011;62853;46.166;3.640;2024-03-25T10:37:54;9.48;;;5.85;;
74102;SDS011;62853;46.166;3.640;2024-03-25T10:40:22;12.35;;;5.32;;
74102;SDS011;62853;46.166;3.640;2024-03-25T10:42:54;9.50;;;4.78;;
74102;SDS011;62853;46.166;3.640;2024-03-25T10:47:53;9.70;;;5.20;;
74102;SDS011;62853;46.166;3.640;2024-03-25T10:50:20;8.85;;;4.60;;
74102;SDS011;62853;46.166;3.640;2024-03-25T10:52:51;7.47;;;4.30;;
74102;SDS011;62853;46.166;3.640;2024-03-25T10:55:18;9.57;;;4.50;;
74102;SDS011;62853;46.166;3.640;2024-03-25T10:57:45;5.57;;;3.58;;
74102;SDS011;62853;46.166;3.640;2024-03-25T11:00:12;6.78;;;3.53;;
74102;SDS011;62853;46.166;3.640;2024-03-25T11:02:40;5.60;;;3.22;;
74102;SDS011;62853;46.166;3.640;2024-03-25T11:05:07;4.38;;;3.13;;
74102;SDS011;62853;46.166;3.640;2024-03-25T11:07:34;5.00;;;3.28;;
74102;SDS011;62853;46.166;3.640;2024-03-25T11:10:05;5.70;;;3.40;;
74102;SDS011;62853;46.166;3.640;2024-03-25T11:12:41;3.60;;;2.80;;
74102;SDS011;62853;46.166;3.640;2024-03-25T11:15:07;4.60;;;3.20;;
74102;SDS011;62853;46.166;3.640;2024-03-25T11:17:33;5.82;;;3.20;;
74102;SDS011;62853;46.166;3.640;2024-03-25T11:20:09;3.78;;;2.60;;
74102;SDS011;62853;46.166;3.640;2024-03-25T11:22:46;5.97;;;3.10;;
74102;SDS011;62853;46.166;3.640;2024-03-25T11:25:15;4.53;;;2.90;;
74102;SDS011;62853;46.166;3.640;2024-03-25T11:27:42;4.43;;;2.58;;
74102;SDS011;62853;46.166;3.640;2024-03-25T11:30:09;3.83;;;2.60;;
74102;SDS011;62853;46.166;3.640;2024-03-25T11:33:11;5.47;;;3.08;;
74102;SDS011;62853;46.166;3.640;2024-03-25T11:35:30;3.45;;;2.40;;
74102;SDS011;62853;46.166;3.640;2024-03-25T11:38:01;4.35;;;2.78;;
74102;SDS011;62853;46.166;3.640;2024-03-25T11:40:27;3.03;;;2.42;;
74102;SDS011;62853;46.166;3.640;2024-03-25T11:42:52;3.15;;;2.47;;
74102;SDS011;62853;46.166;3.640;2024-03-25T11:45:19;3.95;;;2.70;;
74102;SDS011;62853;46.166;3.640;2024-03-25T11:47:46;3.33;;;2.28;;
74102;SDS011;62853;46.166;3.640;2024-03-25T11:50:14;3.55;;;2.30;;
74102;SDS011;62853;46.166;3.640;2024-03-25T11:52:41;3.38;;;2.28;;
74102;SDS011;62853;46.166;3.640;2024-03-25T11:55:07;3.28;;;2.22;;
74102;SDS011;62853;46.166;3.640;2024-03-25T11:57:33;3.72;;;2.42;;
74102;SDS011;62853;46.166;3.640;2024-03-25T12:00:03;3.70;;;2.28;;
74102;SDS011;62853;46.166;3.640;2024-03-25T12:02:30;2.65;;;1.88;;
74102;SDS011;62853;46.166;3.640;2024-03-25T12:04:56;3.03;;;2.10;;
74102;SDS011;62853;46.166;3.640;2024-03-25T12:07:21;2.90;;;1.80;;
74102;SDS011;62853;46.166;3.640;2024-03-25T12:09:47;2.38;;;1.90;;
74102;SDS011;62853;46.166;3.640;2024-03-25T12:12:32;2.30;;;1.80;;
74102;SDS011;62853;46.166;3.640;2024-03-25T12:14:59;4.45;;;1.70;;
74102;SDS011;62853;46.166;3.640;2024-03-25T12:17:27;3.08;;;2.13;;
74102;SDS011;62853;46.166;3.640;2024-03-25T12:22:29;2.30;;;1.80;;
74102;SDS011;62853;46.166;3.640;2024-03-25T12:24:57;3.15;;;2.08;;
74102;SDS011;62853;46.166;3.640;2024-03-25T12:27:24;4.20;;;2.13;;
74102;SDS011;62853;46.166;3.640;2024-03-25T12:29:59;3.55;;;2.10;;
74102;SDS011;62853;46.166;3.640;2024-03-25T12:32:38;3.72;;;2.00;;
74102;SDS011;62853;46.166;3.640;2024-03-25T12:35:09;3.25;;;1.90;;
74102;SDS011;62853;46.166;3.640;2024-03-25T12:37:43;4.15;;;2.25;;
74102;SDS011;62853;46.166;3.640;2024-03-25T12:40:11;3.13;;;1.80;;
74102;SDS011;62853;46.166;3.640;2024-03-25T12:42:38;2.53;;;1.55;;
74102;SDS011;62853;46.166;3.640;2024-03-25T12:45:06;3.00;;;1.58;;
74102;SDS011;62853;46.166;3.640;2024-03-25T12:47:32;5.05;;;2.00;;
74102;SDS011;62853;46.166;3.640;2024-03-25T12:49:58;3.15;;;1.98;;
74102;SDS011;62853;46.166;3.640;2024-03-25T12:52:24;3.08;;;1.92;;
74102;SDS011;62853;46.166;3.640;2024-03-25T12:54:50;3.38;;;2.10;;
74102;SDS011;62853;46.166;3.640;2024-03-25T12:57:15;2.60;;;1.88;;
74102;SDS011;62853;46.166;3.640;2024-03-25T12:59:40;3.63;;;1.85;;
74102;SDS011;62853;46.166;3.640;2024-03-25T13:02:07;3.60;;;1.85;;
74102;SDS011;62853;46.166;3.640;2024-03-25T13:04:35;2.55;;;1.80;;
74102;SDS011;62853;46.166;3.640;2024-03-25T13:07:02;3.10;;;2.20;;
74102;SDS011;62853;46.166;3.640;2024-03-25T13:09:28;2.42;;;2.00;;
74102;SDS011;62853;46.166;3.640;2024-03-25T13:11:55;2.80;;;1.60;;
74102;SDS011;62853;46.166;3.640;2024-03-25T13:14:21;2.95;;;1.80;;
74102;SDS011;62853;46.166;3.640;2024-03-25T13:16:47;2.45;;;2.05;;
74102;SDS011;62853;46.166;3.640;2024-03-25T13:19:13;2.25;;;1.80;;
74102;SDS011;62853;46.166;3.640;2024-03-25T13:21:38;3.60;;;2.20;;
74102;SDS011;62853;46.166;3.640;2024-03-25T13:24:04;3.13;;;1.85;;
74102;SDS011;62853;46.166;3.640;2024-03-25T13:26:29;2.65;;;1.77;;
74102;SDS011;62853;46.166;3.640;2024-03-25T13:28:55;3.33;;;1.90;;
74102;SDS011;62853;46.166;3.640;2024-03-25T13:31:20;3.40;;;1.95;;
74102;SDS011;62853;46.166;3.640;2024-03-25T13:33:45;1.98;;;1.60;;
74102;SDS011;62853;46.166;3.640;2024-03-25T13:36:11;2.58;;;1.65;;
74102;SDS011;62853;46.166;3.640;2024-03-25T13:38:36;2.00;;;1.73;;
74102;SDS011;62853;46.166;3.640;2024-03-25T13:41:02;2.95;;;1.80;;
74102;SDS011;62853;46.166;3.640;2024-03-25T13:43:28;2.67;;;1.73;;
74102;SDS011;62853;46.166;3.640;2024-03-25T13:45:54;1.75;;;1.30;;
74102;SDS011;62853;46.166;3.640;2024-03-25T13:48:19;2.38;;;1.40;;
74102;SDS011;62853;46.166;3.640;2024-03-25T13:50:45;2.08;;;1.50;;
74102;SDS011;62853;46.166;3.640;2024-03-25T13:53:10;3.55;;;1.60;;
74102;SDS011;62853;46.166;3.640;2024-03-25T13:55:35;2.97;;;1.50;;
74102;SDS011;62853;46.166;3.640;2024-03-25T13:58:01;2.58;;;1.60;;
74102;SDS011;62853;46.166;3.640;2024-03-25T14:00:26;2.05;;;1.55;;
74102;SDS011;62853;46.166;3.640;2024-03-25T14:02:53;2.30;;;1.50;;
74102;SDS011;62853;46.166;3.640;2024-03-25T14:05:19;2.28;;;1.50;;
74102;SDS011;62853;46.166;3.640;2024-03-25T14:07:45;2.33;;;1.50;;
74102;SDS011;62853;46.166;3.640;2024-03-25T14:10:11;1.90;;;1.33;;
74102;SDS011;62853;46.166;3.640;2024-03-25T14:12:37;2.25;;;1.45;;
74102;SDS011;62853;46.166;3.640;2024-03-25T14:15:02;2.95;;;1.60;;
74102;SDS011;62853;46.166;3.640;2024-03-25T14:17:28;2.35;;;1.52;;
74102;SDS011;62853;46.166;3.640;2024-03-25T14:19:55;2.00;;;1.30;;
74102;SDS011;62853;46.166;3.640;2024-03-25T14:22:21;2.30;;;1.70;;
74102;SDS011;62853;46.166;3.640;2024-03-25T14:24:47;1.50;;;1.40;;
74102;SDS011;62853;46.166;3.640;2024-03-25T14:27:13;1.48;;;1.38;;
74102;SDS011;62853;46.166;3.640;2024-03-25T14:29:39;2.40;;;1.73;;
74102;SDS011;62853;46.166;3.640;2024-03-25T14:32:04;2.38;;;1.83;;
74102;SDS011;62853;46.166;3.640;2024-03-25T14:34:30;3.08;;;2.10;;
74102;SDS011;62853;46.166;3.640;2024-03-25T14:36:55;3.60;;;2.20;;
74102;SDS011;62853;46.166;3.640;2024-03-25T14:39:22;2.30;;;2.10;;
74102;SDS011;62853;46.166;3.640;2024-03-25T14:41:47;2.28;;;1.80;;
74102;SDS011;62853;46.166;3.640;2024-03-25T14:44:13;3.58;;;1.92;;
74102;SDS011;62853;46.166;3.640;2024-03-25T14:46:38;2.97;;;1.80;;
74102;SDS011;62853;46.166;3.640;2024-03-25T14:49:04;3.88;;;2.00;;
74102;SDS011;62853;46.166;3.640;2024-03-25T14:51:29;2.83;;;2.00;;
74102;SDS011;62853;46.166;3.640;2024-03-25T14:53:54;2.55;;;2.00;;
74102;SDS011;62853;46.166;3.640;2024-03-25T14:56:20;2.28;;;1.80;;